Terminal Aerodrome Forecast
Issued by NWS

Home | Current Version | Previous Version | Text Only | Print | Product List | Glossary On
Versions: 1 2 3 4 5 6 7 8 9 10 11 12 13 14 15 16
000
FTUS43 KDTX 290520
TAFMBS
TAF
KMBS 290520Z 2906/3006 VRB03KT P6SM BKN250
     FM291100 20007KT P6SM SCT040 SCT060 BKN150
     FM291500 24012KT P6SM BKN040 BKN120 PROB30 2918/2920 3SM TSRA
      BKN030CB OVC060
     FM300000 26008KT P6SM SCT250=

USA.gov is the U.S. government's official web portal to all federal, state and local government web resources and services.